createdAt,value
2018-01-20T00:02:17.836Z,3.40
2018-01-20T00:04:46.113Z,3.40
2018-01-20T00:07:14.365Z,3.40
2018-01-20T00:09:55.438Z,3.30
2018-01-20T00:12:23.685Z,3.30
2018-01-20T00:14:57.714Z,3.20
2018-01-20T00:17:25.959Z,3.00
2018-01-20T00:19:56.190Z,2.80
2018-01-20T00:22:24.453Z,2.70
2018-01-20T00:25:02.701Z,2.60
2018-01-20T00:27:36.158Z,2.60
2018-01-20T00:30:04.398Z,2.30
2018-01-20T00:32:32.677Z,2.20
2018-01-20T00:35:04.319Z,2.30
2018-01-20T00:37:32.601Z,2.20
2018-01-20T00:40:04.522Z,2.20
2018-01-20T00:42:32.789Z,2.10
2018-01-20T00:45:01.030Z,2.10
2018-01-20T00:47:30.426Z,2.10
2018-01-20T00:50:02.586Z,2.10
2018-01-20T00:52:30.830Z,2.20
2018-01-20T00:55:03.699Z,2.10
2018-01-20T00:57:31.966Z,2.20
2018-01-20T01:00:00.234Z,2.20
2018-01-20T01:02:29.545Z,2.20
2018-01-20T01:04:59.281Z,2.20
2018-01-20T01:07:28.266Z,2.20
2018-01-20T01:10:00.088Z,2.30
2018-01-20T01:12:29.293Z,2.30
2018-01-20T01:14:57.571Z,2.30
2018-01-20T01:17:25.821Z,2.30
2018-01-20T01:19:57.193Z,2.30
2018-01-20T01:22:25.448Z,2.30
2018-01-20T01:24:53.726Z,2.30
2018-01-20T01:27:21.969Z,2.30
2018-01-20T01:29:53.272Z,2.30
2018-01-20T01:32:21.517Z,2.40
2018-01-20T01:34:56.026Z,2.40
2018-01-20T01:37:24.273Z,2.30
2018-01-20T01:39:56.729Z,2.30
2018-01-20T01:42:24.977Z,2.40
2018-01-20T01:44:56.909Z,2.40
2018-01-20T01:47:25.152Z,2.30
2018-01-20T01:49:53.430Z,2.30
2018-01-20T01:52:21.700Z,2.30
2018-01-20T01:54:49.946Z,2.40
2018-01-20T01:57:17.450Z,2.40
2018-01-20T01:59:49.164Z,2.30
2018-01-20T02:02:17.438Z,2.30
2018-01-20T02:04:45.686Z,2.40
2018-01-20T02:07:13.972Z,2.40
2018-01-20T02:09:42.221Z,2.30
2018-01-20T02:12:10.470Z,2.30
2018-01-20T02:14:39.825Z,2.30
2018-01-20T02:17:08.073Z,2.30
2018-01-20T02:19:44.406Z,2.30
2018-01-20T02:22:12.694Z,2.30
2018-01-20T02:24:40.941Z,2.40
2018-01-20T02:27:09.189Z,2.30
2018-01-20T02:29:42.981Z,2.40
2018-01-20T02:32:11.229Z,2.40
2018-01-20T02:34:39.510Z,2.30
2018-01-20T02:37:07.782Z,2.30
2018-01-20T02:39:42.090Z,2.40
2018-01-20T02:42:10.374Z,2.40
2018-01-20T02:44:39.530Z,2.40
2018-01-20T02:47:07.815Z,2.50
2018-01-20T02:49:39.822Z,2.50
2018-01-20T02:52:08.111Z,2.60
2018-01-20T02:54:36.361Z,2.60
2018-01-20T02:57:04.630Z,2.60
2018-01-20T02:59:42.867Z,2.70
2018-01-20T03:02:11.121Z,2.60
2018-01-20T03:04:39.410Z,2.60
2018-01-20T03:07:07.689Z,2.60
2018-01-20T03:09:35.951Z,2.70
2018-01-20T03:12:04.238Z,2.60
2018-01-20T03:14:36.621Z,2.60
2018-01-20T03:17:04.874Z,2.70
2018-01-20T03:19:48.210Z,2.70
2018-01-20T03:22:15.698Z,2.70
2018-01-20T03:24:45.914Z,2.60
2018-01-20T03:27:14.198Z,2.70
2018-01-20T03:29:59.250Z,2.80
2018-01-20T03:32:28.495Z,2.70
2018-01-20T03:35:03.583Z,2.70
2018-01-20T03:37:32.064Z,2.70
2018-01-20T03:40:00.318Z,2.70
2018-01-20T03:42:28.601Z,2.70
2018-01-20T03:44:56.867Z,2.70
2018-01-20T03:47:25.158Z,2.70
2018-01-20T03:49:54.438Z,2.70
2018-01-20T03:52:22.718Z,2.70
2018-01-20T03:54:50.973Z,2.70
2018-01-20T03:57:19.266Z,2.70
2018-01-20T03:59:47.522Z,2.70
2018-01-20T04:02:15.780Z,2.70
2018-01-20T04:04:44.074Z,2.60
2018-01-20T04:07:12.318Z,2.60
2018-01-20T04:09:40.598Z,2.60
2018-01-20T04:12:08.870Z,2.70
2018-01-20T04:14:37.118Z,2.70
2018-01-20T04:17:05.399Z,2.70
2018-01-20T04:19:38.767Z,2.80
2018-01-20T04:22:07.042Z,2.80
2018-01-20T04:24:38.698Z,2.70
2018-01-20T04:27:06.970Z,2.70
2018-01-20T04:29:41.506Z,2.70
2018-01-20T04:32:09.783Z,2.70
2018-01-20T04:34:40.006Z,2.70
2018-01-20T04:37:08.279Z,2.70
2018-01-20T04:39:40.185Z,2.60
2018-01-20T04:42:08.479Z,2.70
2018-01-20T04:44:46.994Z,2.70
2018-01-20T04:47:15.283Z,2.70
2018-01-20T04:49:43.546Z,2.70
2018-01-20T04:52:11.058Z,2.70
2018-01-20T04:54:47.402Z,2.60
2018-01-20T04:57:15.646Z,2.60
2018-01-20T04:59:43.934Z,2.60
2018-01-20T05:02:11.450Z,2.60
2018-01-20T05:04:39.697Z,2.60
2018-01-20T05:07:07.974Z,2.50
2018-01-20T05:09:37.230Z,2.50
2018-01-20T05:12:05.501Z,2.60
2018-01-20T05:14:37.927Z,2.60
2018-01-20T05:17:06.203Z,2.60
2018-01-20T05:19:35.454Z,2.60
2018-01-20T05:22:03.821Z,2.60
2018-01-20T05:24:33.078Z,2.60
2018-01-20T05:27:01.327Z,2.50
2018-01-20T05:29:33.190Z,2.50
2018-01-20T05:32:01.451Z,2.50
2018-01-20T05:34:42.658Z,2.50
2018-01-20T05:37:10.906Z,2.50
2018-01-20T05:39:40.130Z,2.60
2018-01-20T05:42:08.386Z,2.50
2018-01-20T05:44:38.669Z,2.50
2018-01-20T05:47:06.150Z,2.50
2018-01-20T05:49:35.382Z,2.50
2018-01-20T05:52:03.631Z,2.50
2018-01-20T05:54:31.902Z,2.50
2018-01-20T05:57:00.186Z,2.50
2018-01-20T05:59:34.390Z,2.50
2018-01-20T06:02:02.666Z,2.40
2018-01-20T06:04:31.917Z,2.30
2018-01-20T06:07:00.206Z,2.40
2018-01-20T06:09:28.450Z,2.40
2018-01-20T06:11:56.694Z,2.40
2018-01-20T06:14:30.866Z,2.40
2018-01-20T06:16:59.705Z,2.40
2018-01-20T06:19:28.969Z,2.50
2018-01-20T06:21:57.214Z,2.50
2018-01-20T06:24:25.490Z,2.50
2018-01-20T06:26:53.774Z,2.50
2018-01-20T06:29:22.074Z,2.60
2018-01-20T06:31:50.321Z,2.60
2018-01-20T06:34:22.766Z,2.70
2018-01-20T06:36:51.010Z,2.60
2018-01-20T06:39:20.274Z,2.60
2018-01-20T06:41:48.550Z,2.60
2018-01-20T06:44:18.710Z,2.60
2018-01-20T06:46:46.990Z,2.70
2018-01-20T06:49:18.411Z,2.70
2018-01-20T06:51:46.682Z,2.70
2018-01-20T06:54:14.938Z,2.70
2018-01-20T06:56:43.218Z,2.70
2018-01-20T06:59:21.234Z,2.70
2018-01-20T07:01:49.508Z,2.70
2018-01-20T07:04:34.670Z,2.70
2018-01-20T07:07:02.966Z,2.70
2018-01-20T07:09:31.242Z,2.70
2018-01-20T07:12:00.170Z,2.70
2018-01-20T07:14:27.682Z,2.70
2018-01-20T07:16:55.170Z,2.60
2018-01-20T07:19:23.446Z,2.60
2018-01-20T07:21:51.698Z,2.50
2018-01-20T07:24:19.986Z,2.50
2018-01-20T07:26:48.238Z,2.50
2018-01-20T07:29:16.486Z,2.50
2018-01-20T07:31:44.766Z,2.50
2018-01-20T07:34:13.058Z,2.40
2018-01-20T07:36:41.302Z,2.50
2018-01-20T07:39:12.952Z,2.50
2018-01-20T07:41:41.281Z,2.50
2018-01-20T07:44:09.540Z,2.60
2018-01-20T07:46:37.830Z,2.60
2018-01-20T07:49:13.790Z,2.60
2018-01-20T07:51:42.087Z,2.70
2018-01-20T07:54:11.347Z,2.70
2018-01-20T07:56:39.594Z,2.70
2018-01-20T07:59:07.882Z,2.70
2018-01-20T08:01:36.130Z,2.70
2018-01-20T08:04:04.414Z,2.70
2018-01-20T08:06:32.673Z,2.70
2018-01-20T08:09:04.170Z,2.70
2018-01-20T08:11:32.432Z,2.70
2018-01-20T08:14:01.697Z,2.80
2018-01-20T08:16:30.027Z,2.80
2018-01-20T08:18:58.850Z,2.80
2018-01-20T08:21:27.138Z,2.80
2018-01-20T08:23:55.399Z,2.80
2018-01-20T08:26:23.651Z,2.80
2018-01-20T08:28:52.854Z,2.90
2018-01-20T08:31:21.132Z,2.90
2018-01-20T08:33:50.387Z,2.90
2018-01-20T08:36:18.632Z,2.90
2018-01-20T08:38:46.910Z,3.00
2018-01-20T08:41:15.167Z,3.00
2018-01-20T08:43:44.414Z,3.00
2018-01-20T08:46:12.675Z,3.00
2018-01-20T08:48:41.923Z,3.00
2018-01-20T08:51:10.202Z,3.00
2018-01-20T08:53:38.477Z,3.00
2018-01-20T08:56:06.726Z,3.10
2018-01-20T08:58:34.998Z,3.00
2018-01-20T09:01:08.230Z,3.10
2018-01-20T09:03:36.518Z,3.10
2018-01-20T09:06:04.762Z,3.20
2018-01-20T09:08:33.042Z,3.20
2018-01-20T09:11:09.298Z,3.20
2018-01-20T09:13:37.577Z,3.20
2018-01-20T09:16:05.858Z,3.20
2018-01-20T09:18:34.106Z,3.20
2018-01-20T09:21:07.800Z,3.20
2018-01-20T09:23:36.090Z,3.20
2018-01-20T09:26:04.342Z,3.20
2018-01-20T09:28:32.659Z,3.20
2018-01-20T09:31:04.049Z,3.30
2018-01-20T09:33:32.328Z,3.40
2018-01-20T09:36:05.740Z,3.40
2018-01-20T09:38:34.015Z,3.40
2018-01-20T09:41:02.266Z,3.50
2018-01-20T09:43:29.779Z,3.50
2018-01-20T09:46:01.129Z,3.50
2018-01-20T09:48:30.097Z,3.60
2018-01-20T09:50:59.175Z,3.60
2018-01-20T09:53:28.353Z,3.60
2018-01-20T09:55:57.571Z,3.60
2018-01-20T09:58:25.828Z,3.70
2018-01-20T10:00:58.794Z,3.70
2018-01-20T10:03:27.037Z,3.70
2018-01-20T10:05:55.313Z,3.70
2018-01-20T10:08:23.566Z,3.80
2018-01-20T10:10:51.850Z,3.70
2018-01-20T10:13:20.094Z,3.70
2018-01-20T10:15:48.386Z,3.90
2018-01-20T10:18:16.639Z,3.80
2018-01-20T10:20:44.886Z,3.90
2018-01-20T10:23:13.168Z,3.90
2018-01-20T10:25:41.416Z,3.90
2018-01-20T10:28:12.886Z,3.90
2018-01-20T10:30:41.130Z,3.90
2018-01-20T10:33:09.410Z,4.00
2018-01-20T10:35:37.658Z,4.00
2018-01-20T10:38:18.458Z,4.00
2018-01-20T10:40:46.706Z,4.10
2018-01-20T10:43:14.985Z,4.10
2018-01-20T10:45:43.234Z,4.10
2018-01-20T10:48:11.514Z,4.10
2018-01-20T10:50:38.998Z,4.10
2018-01-20T10:53:07.278Z,4.10
2018-01-20T10:55:35.579Z,4.10
2018-01-20T10:58:03.818Z,4.10
2018-01-20T11:00:32.106Z,4.10
2018-01-20T11:03:00.356Z,4.20
2018-01-20T11:05:28.624Z,4.20
2018-01-20T11:07:56.910Z,4.20
2018-01-20T11:10:25.162Z,4.30
2018-01-20T11:12:53.410Z,4.30
2018-01-20T11:15:21.686Z,4.40
2018-01-20T11:17:49.940Z,4.30
2018-01-20T11:20:18.234Z,4.40
2018-01-20T11:22:46.482Z,4.30
2018-01-20T11:25:14.734Z,4.30
2018-01-20T11:27:43.005Z,4.20
2018-01-20T11:30:11.255Z,4.20
2018-01-20T11:32:39.531Z,4.20
2018-01-20T11:35:07.814Z,4.20
2018-01-20T11:37:36.070Z,4.20
2018-01-20T11:40:04.357Z,4.30
2018-01-20T11:42:33.594Z,4.40
2018-01-20T11:45:01.848Z,4.50
2018-01-20T11:47:30.585Z,4.40
2018-01-20T11:50:00.073Z,4.50
2018-01-20T11:52:30.354Z,4.50
2018-01-20T11:54:58.629Z,4.40
2018-01-20T11:57:33.966Z,4.40
2018-01-20T12:00:02.250Z,4.30
2018-01-20T12:02:31.418Z,4.30
2018-01-20T12:04:59.665Z,4.30
2018-01-20T12:07:28.983Z,4.30
2018-01-20T12:09:57.225Z,4.30
2018-01-20T12:12:30.482Z,4.30
2018-01-20T12:14:59.978Z,4.30
2018-01-20T12:17:29.211Z,4.30
2018-01-20T12:19:58.465Z,4.50
2018-01-20T12:22:27.698Z,4.40
2018-01-20T12:24:56.074Z,4.40
2018-01-20T12:27:25.325Z,4.40
2018-01-20T12:29:53.581Z,4.40
2018-01-20T12:32:21.870Z,4.40
2018-01-20T12:34:50.115Z,4.40
2018-01-20T12:37:18.364Z,4.40
2018-01-20T12:39:46.637Z,4.50
2018-01-20T12:42:14.902Z,4.40
2018-01-20T12:44:43.179Z,4.40
2018-01-20T12:47:11.426Z,4.40
2018-01-20T12:49:39.702Z,4.40
2018-01-20T12:52:07.182Z,4.40
2018-01-20T12:54:36.374Z,4.40
2018-01-20T12:57:04.662Z,4.40
2018-01-20T12:59:32.907Z,4.30
2018-01-20T13:02:01.154Z,4.30
2018-01-20T13:04:30.270Z,4.30
2018-01-20T13:06:57.750Z,4.30
2018-01-20T13:09:26.030Z,4.20
2018-01-20T13:11:54.296Z,4.20
2018-01-20T13:14:22.569Z,4.20
2018-01-20T13:16:50.846Z,4.20
2018-01-20T13:19:19.135Z,4.20
2018-01-20T13:21:47.414Z,4.30
2018-01-20T13:24:15.658Z,4.20
2018-01-20T13:26:43.902Z,4.20
2018-01-20T13:29:12.210Z,4.20
2018-01-20T13:31:40.486Z,4.20
2018-01-20T13:34:08.734Z,4.20
2018-01-20T13:36:36.982Z,4.20
2018-01-20T13:39:05.262Z,4.20
2018-01-20T13:41:33.509Z,4.10
2018-01-20T13:44:02.741Z,4.10
2018-01-20T13:46:30.984Z,4.10
2018-01-20T13:49:00.438Z,4.10
2018-01-20T13:51:29.014Z,4.10
2018-01-20T13:53:58.489Z,4.10
2018-01-20T13:56:26.858Z,4.20
2018-01-20T13:58:55.120Z,4.10
2018-01-20T14:01:23.398Z,4.10
2018-01-20T14:03:51.655Z,4.10
2018-01-20T14:06:19.905Z,4.10
2018-01-20T14:08:48.187Z,4.10
2018-01-20T14:11:16.441Z,4.20
2018-01-20T14:13:44.730Z,4.10
2018-01-20T14:16:12.978Z,4.10
2018-01-20T14:18:41.259Z,4.20
2018-01-20T14:21:09.502Z,4.20
2018-01-20T14:23:37.802Z,4.20
2018-01-20T14:26:06.049Z,4.20
2018-01-20T14:28:34.289Z,4.20
2018-01-20T14:31:02.563Z,4.20
2018-01-20T14:33:30.846Z,4.20
2018-01-20T14:35:59.654Z,4.20
2018-01-20T14:38:29.078Z,4.20
2018-01-20T14:40:58.944Z,4.20
2018-01-20T14:43:28.962Z,4.20
2018-01-20T14:45:57.261Z,4.20
2018-01-20T14:48:25.542Z,4.20
2018-01-20T14:50:53.818Z,4.20
2018-01-20T14:53:22.076Z,4.20
2018-01-20T14:55:50.354Z,4.10
2018-01-20T14:58:18.607Z,4.00
2018-01-20T15:00:46.974Z,4.10
2018-01-20T15:03:15.226Z,4.10
2018-01-20T15:05:43.477Z,4.10
2018-01-20T15:08:11.829Z,4.10
2018-01-20T15:10:40.075Z,4.10
2018-01-20T15:13:08.359Z,4.10
2018-01-20T15:15:36.614Z,4.10
2018-01-20T15:18:04.902Z,4.10
2018-01-20T15:20:33.142Z,4.00
2018-01-20T15:23:00.654Z,4.00
2018-01-20T15:25:30.234Z,4.10
2018-01-20T15:27:58.482Z,4.10
2018-01-20T15:30:26.759Z,4.10
2018-01-20T15:32:55.006Z,4.20
2018-01-20T15:35:23.306Z,4.20
2018-01-20T15:37:51.561Z,4.20
2018-01-20T15:40:19.810Z,4.20
2018-01-20T15:42:48.089Z,4.20
2018-01-20T15:45:16.333Z,4.20
2018-01-20T15:47:44.643Z,4.20
2018-01-20T15:50:12.918Z,4.20
2018-01-20T15:52:41.206Z,4.20
2018-01-20T15:55:09.490Z,4.20
2018-01-20T15:57:37.735Z,4.20
2018-01-20T16:00:06.010Z,4.20
2018-01-20T16:02:34.262Z,4.20
2018-01-20T16:05:02.579Z,4.20
2018-01-20T16:07:31.421Z,4.20
2018-01-20T16:09:59.671Z,4.20
2018-01-20T16:12:31.902Z,4.20
2018-01-20T16:15:00.155Z,4.20
2018-01-20T16:17:34.467Z,4.20
2018-01-20T16:20:02.723Z,4.30
2018-01-20T16:22:31.942Z,4.30
2018-01-20T16:25:00.945Z,4.30
2018-01-20T16:27:30.251Z,4.30
2018-01-20T16:29:58.544Z,4.30
2018-01-20T16:32:37.074Z,4.30
2018-01-20T16:35:17.527Z,4.30
2018-01-20T16:37:45.817Z,4.30
2018-01-20T16:40:20.826Z,4.20
2018-01-20T16:42:49.082Z,4.30
2018-01-20T16:45:17.378Z,4.30
2018-01-20T16:47:45.639Z,4.30
2018-01-20T16:50:13.894Z,4.30
2018-01-20T16:52:42.233Z,4.30
2018-01-20T16:55:10.486Z,4.30
2018-01-20T16:57:38.782Z,4.30
2018-01-20T17:00:17.291Z,4.30
2018-01-20T17:02:45.641Z,4.30
2018-01-20T17:05:13.936Z,4.30
2018-01-20T17:07:59.042Z,4.30
2018-01-20T17:10:29.025Z,4.30
2018-01-20T17:12:57.980Z,4.30
2018-01-20T17:15:26.231Z,4.30
2018-01-20T17:18:00.434Z,4.30
2018-01-20T17:20:29.578Z,4.30
2018-01-20T17:22:59.698Z,4.20
2018-01-20T17:25:28.442Z,4.20
2018-01-20T17:27:58.562Z,4.30
2018-01-20T17:30:26.850Z,4.30
2018-01-20T17:32:55.109Z,4.50
2018-01-20T17:35:23.397Z,4.50
2018-01-20T17:37:55.161Z,4.50
2018-01-20T17:40:23.502Z,4.30
2018-01-20T17:42:51.754Z,4.30
2018-01-20T17:45:20.038Z,4.20
2018-01-20T17:47:48.368Z,4.20
2018-01-20T17:50:16.623Z,4.20
2018-01-20T17:52:44.905Z,4.30
2018-01-20T17:55:13.196Z,4.20
2018-01-20T17:57:41.465Z,4.30
2018-01-20T18:00:09.762Z,4.40
2018-01-20T18:02:38.991Z,4.50
2018-01-20T18:05:07.278Z,4.60
2018-01-20T18:07:36.539Z,4.60
2018-01-20T18:10:04.853Z,4.60
2018-01-20T18:12:33.182Z,4.60
2018-01-20T18:15:01.478Z,4.50
2018-01-20T18:17:29.738Z,4.50
2018-01-20T18:19:58.548Z,4.50
2018-01-20T18:22:26.887Z,4.50
2018-01-20T18:24:55.134Z,4.40
2018-01-20T18:27:23.386Z,4.40
2018-01-20T18:29:51.729Z,4.30
2018-01-20T18:32:20.028Z,4.20
2018-01-20T18:34:48.251Z,4.20
2018-01-20T18:37:15.766Z,4.20
2018-01-20T18:39:44.991Z,4.20
2018-01-20T18:42:13.285Z,4.20
2018-01-20T18:44:41.582Z,3.90
2018-01-20T18:47:09.838Z,3.90
2018-01-20T18:49:38.094Z,3.90
2018-01-20T18:52:07.622Z,3.90
2018-01-20T18:54:35.879Z,3.80
2018-01-20T18:57:05.160Z,3.80
2018-01-20T18:59:33.437Z,3.90
2018-01-20T19:02:03.718Z,4.00
2018-01-20T19:04:31.970Z,4.00
2018-01-20T19:07:00.296Z,4.20
2018-01-20T19:09:28.557Z,4.40
2018-01-20T19:11:58.626Z,4.10
2018-01-20T19:14:26.933Z,4.10
2018-01-20T19:16:55.293Z,4.30
2018-01-20T19:19:23.593Z,4.20
2018-01-20T19:21:54.957Z,4.20
2018-01-20T19:24:23.224Z,4.30
2018-01-20T19:26:51.536Z,4.10
2018-01-20T19:29:19.845Z,4.20
2018-01-20T19:31:49.386Z,4.10
2018-01-20T19:34:17.682Z,4.10
2018-01-20T19:36:45.994Z,4.10
2018-01-20T19:39:14.246Z,4.20
2018-01-20T19:41:42.597Z,4.10
2018-01-20T19:44:10.901Z,4.00
2018-01-20T19:46:40.189Z,3.90
2018-01-20T19:49:15.351Z,3.80
2018-01-20T19:51:43.661Z,3.90
2018-01-20T19:54:12.957Z,3.80
2018-01-20T19:56:41.261Z,3.90
2018-01-20T19:59:09.541Z,3.90
2018-01-20T20:01:37.798Z,3.90
2018-01-20T20:04:09.153Z,3.70
2018-01-20T20:06:37.460Z,3.80
2018-01-20T20:09:05.726Z,3.90
2018-01-20T20:11:34.018Z,3.90
2018-01-20T20:14:03.277Z,3.70
2018-01-20T20:16:30.794Z,3.70
2018-01-20T20:19:01.098Z,3.70
2018-01-20T20:21:30.105Z,3.70
2018-01-20T20:24:13.673Z,3.70
2018-01-20T20:26:41.978Z,3.80
2018-01-20T20:29:12.280Z,3.80
2018-01-20T20:31:40.589Z,3.80
2018-01-20T20:34:08.845Z,3.90
2018-01-20T20:36:37.199Z,3.80
2018-01-20T20:39:05.497Z,3.80
2018-01-20T20:41:33.758Z,3.90
2018-01-20T20:44:02.994Z,3.80
2018-01-20T20:46:31.283Z,3.70
2018-01-20T20:49:01.346Z,3.80
2018-01-20T20:51:30.540Z,3.90
2018-01-20T20:53:59.778Z,3.90
2018-01-20T20:56:29.990Z,3.70
2018-01-20T20:58:59.416Z,3.70
2018-01-20T21:01:27.809Z,3.70
2018-01-20T21:03:56.103Z,3.90
2018-01-20T21:06:28.978Z,3.90
2018-01-20T21:08:57.230Z,3.80
2018-01-20T21:11:25.498Z,4.00
2018-01-20T21:13:53.838Z,4.10
2018-01-20T21:16:22.136Z,4.20
2018-01-20T21:18:50.390Z,4.00
2018-01-20T21:21:18.722Z,3.80
2018-01-20T21:23:47.022Z,3.90
2018-01-20T21:26:15.353Z,3.70
2018-01-20T21:28:43.643Z,3.80
2018-01-20T21:31:11.917Z,3.80
2018-01-20T21:33:40.258Z,3.70
2018-01-20T21:36:08.573Z,3.70
2018-01-20T21:38:36.831Z,3.70
2018-01-20T21:41:06.152Z,3.70
2018-01-20T21:43:34.458Z,3.70
2018-01-20T21:46:02.737Z,3.60
2018-01-20T21:48:37.294Z,3.50
2018-01-20T21:51:05.581Z,3.50
2018-01-20T21:53:33.866Z,3.60
2018-01-20T21:56:02.186Z,3.60
2018-01-20T21:58:32.449Z,3.50
2018-01-20T22:01:00.010Z,3.50
2018-01-20T22:03:27.598Z,3.60
2018-01-20T22:05:55.120Z,3.60
2018-01-20T22:08:23.370Z,3.60
2018-01-20T22:10:51.654Z,3.80
2018-01-20T22:13:20.890Z,3.70
2018-01-20T22:15:49.184Z,3.80
2018-01-20T22:18:28.215Z,3.80
2018-01-20T22:20:56.476Z,3.70
2018-01-20T22:23:24.765Z,3.60
2018-01-20T22:25:53.051Z,3.60
2018-01-20T22:28:22.258Z,3.60
2018-01-20T22:30:49.826Z,3.50
2018-01-20T22:33:19.130Z,3.80
2018-01-20T22:35:47.447Z,3.80
2018-01-20T22:38:17.726Z,3.70
2018-01-20T22:40:46.058Z,3.60
2018-01-20T22:43:16.346Z,3.60
2018-01-20T22:45:44.682Z,3.60
2018-01-20T22:48:23.257Z,3.60
2018-01-20T22:50:51.538Z,3.40
2018-01-20T22:53:20.814Z,3.40
2018-01-20T22:55:48.326Z,3.40
2018-01-20T22:58:16.580Z,3.40
2018-01-20T23:00:44.874Z,3.50
2018-01-20T23:03:14.150Z,3.50
2018-01-20T23:05:42.406Z,3.40
2018-01-20T23:08:18.986Z,3.30
2018-01-20T23:10:47.271Z,3.30
2018-01-20T23:13:17.501Z,3.40
2018-01-20T23:15:45.824Z,3.40
2018-01-20T23:18:14.140Z,3.50
2018-01-20T23:20:42.432Z,3.40
2018-01-20T23:23:14.790Z,3.50
2018-01-20T23:25:43.113Z,3.50
2018-01-20T23:28:22.761Z,3.50
2018-01-20T23:30:51.064Z,3.40
2018-01-20T23:33:18.574Z,3.40
2018-01-20T23:35:46.858Z,3.50
2018-01-20T23:38:15.151Z,3.60
2018-01-20T23:40:43.457Z,3.50
2018-01-20T23:43:11.711Z,3.60
2018-01-20T23:45:57.617Z,3.50
2018-01-20T23:48:25.940Z,3.50
2018-01-20T23:51:06.582Z,3.60
2018-01-20T23:53:34.833Z,3.50
2018-01-20T23:56:06.142Z,3.50
2018-01-20T23:58:34.402Z,3.50
